sensor_id;sensor_type;location;lat;lon;timestamp;temperature;humidity
8095;DHT22;4090;49.270;8.696;2023-08-12T00:01:49;24.40;99.90
8095;DHT22;4090;49.270;8.696;2023-08-12T00:04:31;24.30;99.90
8095;DHT22;4090;49.270;8.696;2023-08-12T00:07:13;24.30;99.90
8095;DHT22;4090;49.270;8.696;2023-08-12T00:09:55;24.20;99.90
8095;DHT22;4090;49.270;8.696;2023-08-12T00:12:39;24.20;99.90
8095;DHT22;4090;49.270;8.696;2023-08-12T00:15:21;24.20;99.90
8095;DHT22;4090;49.270;8.696;2023-08-12T00:18:04;24.20;99.90
8095;DHT22;4090;49.270;8.696;2023-08-12T00:20:47;24.10;99.90
8095;DHT22;4090;49.270;8.696;2023-08-12T00:23:29;24.10;99.90
8095;DHT22;4090;49.270;8.696;2023-08-12T00:26:11;24.20;99.90
8095;DHT22;4090;49.270;8.696;2023-08-12T00:28:54;24.10;99.90
8095;DHT22;4090;49.270;8.696;2023-08-12T00:31:37;24.10;99.90
8095;DHT22;4090;49.270;8.696;2023-08-12T00:34:19;24.10;99.90
8095;DHT22;4090;49.270;8.696;2023-08-12T00:37:01;24.10;99.90
8095;DHT22;4090;49.270;8.696;2023-08-12T00:39:43;24.10;99.90
8095;DHT22;4090;49.270;8.696;2023-08-12T00:42:25;24.10;99.90
8095;DHT22;4090;49.270;8.696;2023-08-12T00:45:10;24.10;99.90
8095;DHT22;4090;49.270;8.696;2023-08-12T00:47:53;24.10;99.90
8095;DHT22;4090;49.270;8.696;2023-08-12T00:50:36;24.00;99.90
8095;DHT22;4090;49.270;8.696;2023-08-12T01:47:47;23.80;99.90
8095;DHT22;4090;49.270;8.696;2023-08-12T01:50:31;23.80;99.90
8095;DHT22;4090;49.270;8.696;2023-08-12T02:09:30;23.60;99.90
8095;DHT22;4090;49.270;8.696;2023-08-12T02:12:13;23.70;99.90
8095;DHT22;4090;49.270;8.696;2023-08-12T02:14:55;23.70;99.90
8095;DHT22;4090;49.270;8.696;2023-08-12T02:17:38;23.60;99.90
8095;DHT22;4090;49.270;8.696;2023-08-12T02:20:22;23.60;99.90
8095;DHT22;4090;49.270;8.696;2023-08-12T02:23:04;23.60;99.90
8095;DHT22;4090;49.270;8.696;2023-08-12T02:25:47;23.60;99.90
8095;DHT22;4090;49.270;8.696;2023-08-12T02:28:30;23.60;99.90
8095;DHT22;4090;49.270;8.696;2023-08-12T02:31:12;23.50;99.90
8095;DHT22;4090;49.270;8.696;2023-08-12T02:33:53;23.60;99.90
8095;DHT22;4090;49.270;8.696;2023-08-12T02:36:35;23.50;99.90
8095;DHT22;4090;49.270;8.696;2023-08-12T02:39:17;23.50;99.90
8095;DHT22;4090;49.270;8.696;2023-08-12T02:41:59;23.50;99.90
8095;DHT22;4090;49.270;8.696;2023-08-12T02:44:43;23.50;99.90
8095;DHT22;4090;49.270;8.696;2023-08-12T02:47:25;23.50;99.90
8095;DHT22;4090;49.270;8.696;2023-08-12T02:50:08;23.50;99.90
8095;DHT22;4090;49.270;8.696;2023-08-12T02:52:50;23.50;99.90
8095;DHT22;4090;49.270;8.696;2023-08-12T02:55:32;23.50;99.90
8095;DHT22;4090;49.270;8.696;2023-08-12T02:58:14;23.50;99.90
8095;DHT22;4090;49.270;8.696;2023-08-12T03:00:57;23.50;99.90
8095;DHT22;4090;49.270;8.696;2023-08-12T03:03:39;23.50;99.90
8095;DHT22;4090;49.270;8.696;2023-08-12T03:06:21;23.40;99.90
8095;DHT22;4090;49.270;8.696;2023-08-12T03:09:03;23.50;99.90
8095;DHT22;4090;49.270;8.696;2023-08-12T03:11:45;23.40;99.90
8095;DHT22;4090;49.270;8.696;2023-08-12T03:14:28;23.40;99.90
8095;DHT22;4090;49.270;8.696;2023-08-12T03:17:15;23.40;99.90
8095;DHT22;4090;49.270;8.696;2023-08-12T03:19:57;23.40;99.90
8095;DHT22;4090;49.270;8.696;2023-08-12T03:22:41;23.40;99.90
8095;DHT22;4090;49.270;8.696;2023-08-12T03:25:23;23.40;99.90
8095;DHT22;4090;49.270;8.696;2023-08-12T03:28:05;23.40;99.90
8095;DHT22;4090;49.270;8.696;2023-08-12T03:30:51;23.40;99.90
8095;DHT22;4090;49.270;8.696;2023-08-12T04:03:30;23.20;99.90
8095;DHT22;4090;49.270;8.696;2023-08-12T05:05:59;23.10;99.90
8095;DHT22;4090;49.270;8.696;2023-08-12T05:08:42;23.20;99.90
8095;DHT22;4090;49.270;8.696;2023-08-12T05:11:25;23.10;99.90
8095;DHT22;4090;49.270;8.696;2023-08-12T05:14:07;23.10;99.90
8095;DHT22;4090;49.270;8.696;2023-08-12T05:16:49;23.10;99.90
8095;DHT22;4090;49.270;8.696;2023-08-12T05:19:32;23.10;99.90
8095;DHT22;4090;49.270;8.696;2023-08-12T05:22:15;23.10;99.90
8095;DHT22;4090;49.270;8.696;2023-08-12T05:24:57;23.10;99.90
8095;DHT22;4090;49.270;8.696;2023-08-12T05:27:40;23.10;99.90
8095;DHT22;4090;49.270;8.696;2023-08-12T05:30:22;23.10;99.90
8095;DHT22;4090;49.270;8.696;2023-08-12T05:33:04;23.00;99.90
8095;DHT22;4090;49.270;8.696;2023-08-12T05:35:47;23.00;99.90
8095;DHT22;4090;49.270;8.696;2023-08-12T05:38:29;23.10;99.90
8095;DHT22;4090;49.270;8.696;2023-08-12T05:41:11;23.10;99.90
8095;DHT22;4090;49.270;8.696;2023-08-12T05:43:54;23.10;99.90
8095;DHT22;4090;49.270;8.696;2023-08-12T05:46:36;23.10;99.90
8095;DHT22;4090;49.270;8.696;2023-08-12T05:57:25;23.00;99.90
8095;DHT22;4090;49.270;8.696;2023-08-12T06:00:09;23.00;99.90
8095;DHT22;4090;49.270;8.696;2023-08-12T06:02:54;23.10;99.90
8095;DHT22;4090;49.270;8.696;2023-08-12T06:05:36;23.10;99.90
8095;DHT22;4090;49.270;8.696;2023-08-12T06:08:22;23.00;99.90
8095;DHT22;4090;49.270;8.696;2023-08-12T06:11:04;23.10;99.90
8095;DHT22;4090;49.270;8.696;2023-08-12T06:13:46;23.00;99.90
8095;DHT22;4090;49.270;8.696;2023-08-12T06:16:29;23.10;99.90
8095;DHT22;4090;49.270;8.696;2023-08-12T06:19:11;23.00;99.90
8095;DHT22;4090;49.270;8.696;2023-08-12T06:21:53;23.00;99.90
8095;DHT22;4090;49.270;8.696;2023-08-12T06:24:35;23.00;99.90
8095;DHT22;4090;49.270;8.696;2023-08-12T06:27:16;23.00;99.90
8095;DHT22;4090;49.270;8.696;2023-08-12T06:30:00;23.10;99.90
8095;DHT22;4090;49.270;8.696;2023-08-12T06:32:43;23.10;99.90
8095;DHT22;4090;49.270;8.696;2023-08-12T06:35:25;23.10;99.90
8095;DHT22;4090;49.270;8.696;2023-08-12T06:38:07;23.10;99.90
8095;DHT22;4090;49.270;8.696;2023-08-12T06:40:50;23.10;99.90
8095;DHT22;4090;49.270;8.696;2023-08-12T06:43:32;23.10;99.90
8095;DHT22;4090;49.270;8.696;2023-08-12T06:46:14;23.10;99.90
8095;DHT22;4090;49.270;8.696;2023-08-12T06:48:58;23.10;99.90
8095;DHT22;4090;49.270;8.696;2023-08-12T06:51:40;23.00;99.90
8095;DHT22;4090;49.270;8.696;2023-08-12T06:54:22;23.10;99.90
8095;DHT22;4090;49.270;8.696;2023-08-12T06:57:05;23.10;99.90
8095;DHT22;4090;49.270;8.696;2023-08-12T06:59:47;23.10;99.90
8095;DHT22;4090;49.270;8.696;2023-08-12T07:02:29;23.10;99.90
8095;DHT22;4090;49.270;8.696;2023-08-12T07:05:13;23.10;99.90
8095;DHT22;4090;49.270;8.696;2023-08-12T07:07:55;23.20;99.90
8095;DHT22;4090;49.270;8.696;2023-08-12T07:10:37;23.20;99.90
8095;DHT22;4090;49.270;8.696;2023-08-12T07:13:19;23.20;99.90
8095;DHT22;4090;49.270;8.696;2023-08-12T07:16:01;23.20;99.90
8095;DHT22;4090;49.270;8.696;2023-08-12T07:18:43;23.20;99.90
8095;DHT22;4090;49.270;8.696;2023-08-12T07:21:26;23.20;99.90
8095;DHT22;4090;49.270;8.696;2023-08-12T07:24:08;23.20;99.90
8095;DHT22;4090;49.270;8.696;2023-08-12T07:26:50;23.20;99.90
8095;DHT22;4090;49.270;8.696;2023-08-12T07:29:32;23.20;99.90
8095;DHT22;4090;49.270;8.696;2023-08-12T07:32:14;23.30;99.90
8095;DHT22;4090;49.270;8.696;2023-08-12T07:34:56;23.30;99.90
8095;DHT22;4090;49.270;8.696;2023-08-12T07:37:39;23.30;99.90
8095;DHT22;4090;49.270;8.696;2023-08-12T07:40:21;23.30;99.90
8095;DHT22;4090;49.270;8.696;2023-08-12T07:43:03;23.30;99.90
8095;DHT22;4090;49.270;8.696;2023-08-12T07:45:50;23.40;99.90
8095;DHT22;4090;49.270;8.696;2023-08-12T07:48:32;23.70;99.90
8095;DHT22;4090;49.270;8.696;2023-08-12T07:51:14;23.40;99.90
8095;DHT22;4090;49.270;8.696;2023-08-12T07:53:57;23.40;99.90
8095;DHT22;4090;49.270;8.696;2023-08-12T07:56:39;23.40;99.90
8095;DHT22;4090;49.270;8.696;2023-08-12T07:59:21;23.40;99.90
8095;DHT22;4090;49.270;8.696;2023-08-12T08:02:03;23.40;99.90
8095;DHT22;4090;49.270;8.696;2023-08-12T08:04:45;23.40;99.90
8095;DHT22;4090;49.270;8.696;2023-08-12T08:07:29;23.40;99.90
8095;DHT22;4090;49.270;8.696;2023-08-12T08:10:13;23.40;99.90
8095;DHT22;4090;49.270;8.696;2023-08-12T08:12:55;23.40;99.90
8095;DHT22;4090;49.270;8.696;2023-08-12T08:15:37;23.30;99.90
8095;DHT22;4090;49.270;8.696;2023-08-12T08:18:19;23.70;99.90
8095;DHT22;4090;49.270;8.696;2023-08-12T08:21:01;23.60;99.90
8095;DHT22;4090;49.270;8.696;2023-08-12T08:23:43;23.60;99.90
8095;DHT22;4090;49.270;8.696;2023-08-12T08:26:26;23.60;99.90
8095;DHT22;4090;49.270;8.696;2023-08-12T08:29:09;23.60;99.90
8095;DHT22;4090;49.270;8.696;2023-08-12T08:31:50;23.70;99.90
8095;DHT22;4090;49.270;8.696;2023-08-12T08:34:32;23.70;99.90
8095;DHT22;4090;49.270;8.696;2023-08-12T08:37:14;23.70;99.90
8095;DHT22;4090;49.270;8.696;2023-08-12T08:39:56;23.70;99.90
8095;DHT22;4090;49.270;8.696;2023-08-12T08:42:40;23.70;99.90
8095;DHT22;4090;49.270;8.696;2023-08-12T08:45:22;23.70;99.90
8095;DHT22;4090;49.270;8.696;2023-08-12T08:48:06;23.70;99.90
8095;DHT22;4090;49.270;8.696;2023-08-12T08:50:48;23.80;99.90
8095;DHT22;4090;49.270;8.696;2023-08-12T08:53:34;23.80;99.90
8095;DHT22;4090;49.270;8.696;2023-08-12T08:56:17;23.80;99.90
8095;DHT22;4090;49.270;8.696;2023-08-12T08:59:00;23.80;99.90
8095;DHT22;4090;49.270;8.696;2023-08-12T09:01:43;23.70;99.90
8095;DHT22;4090;49.270;8.696;2023-08-12T09:04:27;23.80;99.90
8095;DHT22;4090;49.270;8.696;2023-08-12T09:07:11;23.80;99.90
8095;DHT22;4090;49.270;8.696;2023-08-12T09:09:54;23.80;99.90
8095;DHT22;4090;49.270;8.696;2023-08-12T09:12:38;23.90;99.90
8095;DHT22;4090;49.270;8.696;2023-08-12T09:15:21;23.90;99.90
8095;DHT22;4090;49.270;8.696;2023-08-12T09:18:04;24.00;99.90
8095;DHT22;4090;49.270;8.696;2023-08-12T09:20:46;24.10;99.90
8095;DHT22;4090;49.270;8.696;2023-08-12T09:23:28;24.10;99.90
8095;DHT22;4090;49.270;8.696;2023-08-12T09:26:17;24.10;99.90
8095;DHT22;4090;49.270;8.696;2023-08-12T09:28:59;24.20;99.90
8095;DHT22;4090;49.270;8.696;2023-08-12T09:31:43;24.20;99.90
8095;DHT22;4090;49.270;8.696;2023-08-12T09:34:25;24.30;99.90
8095;DHT22;4090;49.270;8.696;2023-08-12T09:37:07;24.20;99.90
8095;DHT22;4090;49.270;8.696;2023-08-12T09:39:49;24.30;99.90
8095;DHT22;4090;49.270;8.696;2023-08-12T09:42:33;24.30;99.90
8095;DHT22;4090;49.270;8.696;2023-08-12T09:45:15;24.30;99.90
8095;DHT22;4090;49.270;8.696;2023-08-12T09:47:58;24.30;99.90
8095;DHT22;4090;49.270;8.696;2023-08-12T09:50:40;24.40;99.90
8095;DHT22;4090;49.270;8.696;2023-08-12T09:53:22;24.40;99.90
8095;DHT22;4090;49.270;8.696;2023-08-12T09:56:06;24.50;99.90
8095;DHT22;4090;49.270;8.696;2023-08-12T09:58:50;24.50;99.90
8095;DHT22;4090;49.270;8.696;2023-08-12T10:01:32;24.50;99.90
8095;DHT22;4090;49.270;8.696;2023-08-12T10:04:17;24.50;99.90
8095;DHT22;4090;49.270;8.696;2023-08-12T10:07:00;24.50;99.90
8095;DHT22;4090;49.270;8.696;2023-08-12T10:09:44;24.60;99.90
8095;DHT22;4090;49.270;8.696;2023-08-12T10:12:27;24.70;99.90
8095;DHT22;4090;49.270;8.696;2023-08-12T10:15:09;24.80;99.90
8095;DHT22;4090;49.270;8.696;2023-08-12T10:17:52;24.90;99.90
8095;DHT22;4090;49.270;8.696;2023-08-12T10:20:37;24.90;99.90
8095;DHT22;4090;49.270;8.696;2023-08-12T10:23:19;24.90;99.90
8095;DHT22;4090;49.270;8.696;2023-08-12T10:26:02;25.00;99.90
8095;DHT22;4090;49.270;8.696;2023-08-12T10:28:45;25.10;99.90
8095;DHT22;4090;49.270;8.696;2023-08-12T10:31:28;25.10;99.90
8095;DHT22;4090;49.270;8.696;2023-08-12T10:34:18;25.10;99.90
8095;DHT22;4090;49.270;8.696;2023-08-12T10:37:02;25.30;99.90
8095;DHT22;4090;49.270;8.696;2023-08-12T10:39:45;25.00;99.90
8095;DHT22;4090;49.270;8.696;2023-08-12T10:42:40;25.10;99.90
8095;DHT22;4090;49.270;8.696;2023-08-12T10:45:22;25.00;99.90
8095;DHT22;4090;49.270;8.696;2023-08-12T10:48:16;25.30;99.90
8095;DHT22;4090;49.270;8.696;2023-08-12T10:50:59;25.20;99.90
8095;DHT22;4090;49.270;8.696;2023-08-12T10:53:46;25.10;99.90
8095;DHT22;4090;49.270;8.696;2023-08-12T10:56:29;25.40;99.90
8095;DHT22;4090;49.270;8.696;2023-08-12T10:59:50;25.40;99.90
8095;DHT22;4090;49.270;8.696;2023-08-12T11:02:33;25.50;99.90
8095;DHT22;4090;49.270;8.696;2023-08-12T11:05:17;25.50;99.90
8095;DHT22;4090;49.270;8.696;2023-08-12T11:08:00;25.60;99.90
8095;DHT22;4090;49.270;8.696;2023-08-12T11:10:45;25.60;99.90
8095;DHT22;4090;49.270;8.696;2023-08-12T11:13:27;25.70;99.90
8095;DHT22;4090;49.270;8.696;2023-08-12T11:16:10;25.80;99.90
8095;DHT22;4090;49.270;8.696;2023-08-12T11:18:52;25.90;99.90
8095;DHT22;4090;49.270;8.696;2023-08-12T11:21:35;25.80;99.90
8095;DHT22;4090;49.270;8.696;2023-08-12T11:24:17;25.80;99.90
8095;DHT22;4090;49.270;8.696;2023-08-12T11:27:01;25.60;99.90
8095;DHT22;4090;49.270;8.696;2023-08-12T11:29:43;25.80;99.90
8095;DHT22;4090;49.270;8.696;2023-08-12T11:32:25;25.80;99.90
8095;DHT22;4090;49.270;8.696;2023-08-12T11:35:08;25.70;99.90
8095;DHT22;4090;49.270;8.696;2023-08-12T11:37:53;25.70;99.90
8095;DHT22;4090;49.270;8.696;2023-08-12T11:40:36;25.70;99.90
8095;DHT22;4090;49.270;8.696;2023-08-12T11:43:22;25.60;99.90
8095;DHT22;4090;49.270;8.696;2023-08-12T11:46:04;25.50;99.90
8095;DHT22;4090;49.270;8.696;2023-08-12T11:48:46;25.40;99.90
8095;DHT22;4090;49.270;8.696;2023-08-12T11:51:28;25.30;99.90
8095;DHT22;4090;49.270;8.696;2023-08-12T11:54:10;25.30;99.90
8095;DHT22;4090;49.270;8.696;2023-08-12T11:56:52;25.10;99.90
8095;DHT22;4090;49.270;8.696;2023-08-12T11:59:35;25.10;99.90
8095;DHT22;4090;49.270;8.696;2023-08-12T12:02:18;25.10;99.90
8095;DHT22;4090;49.270;8.696;2023-08-12T12:04:59;25.10;99.90
8095;DHT22;4090;49.270;8.696;2023-08-12T12:07:43;24.90;99.90
8095;DHT22;4090;49.270;8.696;2023-08-12T12:10:27;24.80;99.90
8095;DHT22;4090;49.270;8.696;2023-08-12T12:13:10;24.80;99.90
8095;DHT22;4090;49.270;8.696;2023-08-12T12:15:54;24.70;99.90
8095;DHT22;4090;49.270;8.696;2023-08-12T12:18:36;24.60;99.90
8095;DHT22;4090;49.270;8.696;2023-08-12T12:21:20;24.60;99.90
8095;DHT22;4090;49.270;8.696;2023-08-12T12:24:04;24.70;99.90
8095;DHT22;4090;49.270;8.696;2023-08-12T12:26:46;24.60;99.90
8095;DHT22;4090;49.270;8.696;2023-08-12T12:29:28;24.70;99.90
8095;DHT22;4090;49.270;8.696;2023-08-12T12:32:11;24.40;99.90
8095;DHT22;4090;49.270;8.696;2023-08-12T12:34:53;24.50;99.90
8095;DHT22;4090;49.270;8.696;2023-08-12T12:37:36;24.50;99.90
8095;DHT22;4090;49.270;8.696;2023-08-12T12:40:18;24.50;99.90
8095;DHT22;4090;49.270;8.696;2023-08-12T12:42:59;24.60;99.90
8095;DHT22;4090;49.270;8.696;2023-08-12T12:45:43;24.60;99.90
8095;DHT22;4090;49.270;8.696;2023-08-12T12:48:26;24.60;99.90
8095;DHT22;4090;49.270;8.696;2023-08-12T12:51:08;24.60;99.90
8095;DHT22;4090;49.270;8.696;2023-08-12T12:53:50;24.60;99.90
8095;DHT22;4090;49.270;8.696;2023-08-12T12:56:32;24.60;99.90
8095;DHT22;4090;49.270;8.696;2023-08-12T12:59:14;24.70;99.90
8095;DHT22;4090;49.270;8.696;2023-08-12T13:01:56;24.80;99.90
8095;DHT22;4090;49.270;8.696;2023-08-12T13:04:40;24.80;99.90
8095;DHT22;4090;49.270;8.696;2023-08-12T13:07:23;24.80;99.90
8095;DHT22;4090;49.270;8.696;2023-08-12T13:10:06;24.90;99.90
8095;DHT22;4090;49.270;8.696;2023-08-12T13:12:48;24.80;99.90
8095;DHT22;4090;49.270;8.696;2023-08-12T13:15:29;24.80;99.90
8095;DHT22;4090;49.270;8.696;2023-08-12T13:18:12;24.80;99.90
8095;DHT22;4090;49.270;8.696;2023-08-12T13:20:55;24.90;99.90
8095;DHT22;4090;49.270;8.696;2023-08-12T13:23:37;24.80;99.90
8095;DHT22;4090;49.270;8.696;2023-08-12T13:26:20;24.80;99.90
8095;DHT22;4090;49.270;8.696;2023-08-12T13:29:02;24.90;99.90
8095;DHT22;4090;49.270;8.696;2023-08-12T13:31:44;25.40;99.90
8095;DHT22;4090;49.270;8.696;2023-08-12T13:34:26;25.20;99.90
8095;DHT22;4090;49.270;8.696;2023-08-12T13:37:09;25.10;99.90
8095;DHT22;4090;49.270;8.696;2023-08-12T13:39:51;25.20;99.90
8095;DHT22;4090;49.270;8.696;2023-08-12T13:42:33;25.20;99.90
8095;DHT22;4090;49.270;8.696;2023-08-12T13:45:15;25.20;99.90
8095;DHT22;4090;49.270;8.696;2023-08-12T13:47:57;25.10;99.90
8095;DHT22;4090;49.270;8.696;2023-08-12T13:50:38;25.10;99.90
8095;DHT22;4090;49.270;8.696;2023-08-12T13:53:21;25.10;99.90
8095;DHT22;4090;49.270;8.696;2023-08-12T13:56:04;25.10;99.90
8095;DHT22;4090;49.270;8.696;2023-08-12T13:58:46;25.00;99.90
8095;DHT22;4090;49.270;8.696;2023-08-12T14:01:28;25.00;99.90
8095;DHT22;4090;49.270;8.696;2023-08-12T14:04:09;24.80;99.90
8095;DHT22;4090;49.270;8.696;2023-08-12T14:06:51;24.80;99.90
8095;DHT22;4090;49.270;8.696;2023-08-12T14:09:34;25.30;99.90
8095;DHT22;4090;49.270;8.696;2023-08-12T14:12:16;25.00;99.90
8095;DHT22;4090;49.270;8.696;2023-08-12T14:14:58;25.10;99.90
8095;DHT22;4090;49.270;8.696;2023-08-12T14:17:40;25.30;99.90
8095;DHT22;4090;49.270;8.696;2023-08-12T14:20:22;25.10;99.90
8095;DHT22;4090;49.270;8.696;2023-08-12T14:23:04;25.00;99.90
8095;DHT22;4090;49.270;8.696;2023-08-12T14:25:47;25.00;99.90
8095;DHT22;4090;49.270;8.696;2023-08-12T14:28:29;25.00;99.90
8095;DHT22;4090;49.270;8.696;2023-08-12T14:31:11;25.00;99.90
8095;DHT22;4090;49.270;8.696;2023-08-12T14:33:53;25.00;99.90
8095;DHT22;4090;49.270;8.696;2023-08-12T14:36:35;25.00;99.90
8095;DHT22;4090;49.270;8.696;2023-08-12T14:39:17;25.00;99.90
8095;DHT22;4090;49.270;8.696;2023-08-12T14:42:00;25.00;99.90
8095;DHT22;4090;49.270;8.696;2023-08-12T14:44:44;25.00;99.90
8095;DHT22;4090;49.270;8.696;2023-08-12T14:47:26;25.00;99.90
8095;DHT22;4090;49.270;8.696;2023-08-12T14:50:08;25.00;99.90
8095;DHT22;4090;49.270;8.696;2023-08-12T14:52:50;24.90;99.90
8095;DHT22;4090;49.270;8.696;2023-08-12T14:55:32;24.90;99.90
8095;DHT22;4090;49.270;8.696;2023-08-12T14:58:15;24.80;99.90
8095;DHT22;4090;49.270;8.696;2023-08-12T15:00:57;24.80;99.90
8095;DHT22;4090;49.270;8.696;2023-08-12T15:03:41;24.70;99.90
8095;DHT22;4090;49.270;8.696;2023-08-12T15:06:23;24.70;99.90
8095;DHT22;4090;49.270;8.696;2023-08-12T15:09:05;24.70;99.90
8095;DHT22;4090;49.270;8.696;2023-08-12T15:11:47;24.70;99.90
8095;DHT22;4090;49.270;8.696;2023-08-12T15:14:30;24.70;99.90
8095;DHT22;4090;49.270;8.696;2023-08-12T15:17:12;24.70;99.90
8095;DHT22;4090;49.270;8.696;2023-08-12T15:19:53;24.60;99.90
8095;DHT22;4090;49.270;8.696;2023-08-12T15:22:35;24.70;99.90
8095;DHT22;4090;49.270;8.696;2023-08-12T15:25:17;24.60;99.90
8095;DHT22;4090;49.270;8.696;2023-08-12T15:27:59;24.60;99.90
8095;DHT22;4090;49.270;8.696;2023-08-12T15:30:43;24.70;99.90
8095;DHT22;4090;49.270;8.696;2023-08-12T15:33:26;24.60;99.90
8095;DHT22;4090;49.270;8.696;2023-08-12T15:36:08;24.60;99.90
8095;DHT22;4090;49.270;8.696;2023-08-12T15:38:49;24.60;99.90
8095;DHT22;4090;49.270;8.696;2023-08-12T15:41:31;24.60;99.90
8095;DHT22;4090;49.270;8.696;2023-08-12T15:44:13;24.60;99.90
8095;DHT22;4090;49.270;8.696;2023-08-12T15:46:56;24.60;99.90
8095;DHT22;4090;49.270;8.696;2023-08-12T15:49:38;24.70;99.90
8095;DHT22;4090;49.270;8.696;2023-08-12T15:52:20;24.70;99.90
8095;DHT22;4090;49.270;8.696;2023-08-12T15:55:03;24.40;99.90
8095;DHT22;4090;49.270;8.696;2023-08-12T15:57:45;24.50;99.90
8095;DHT22;4090;49.270;8.696;2023-08-12T16:00:27;24.50;99.90
8095;DHT22;4090;49.270;8.696;2023-08-12T16:03:10;24.50;99.90
8095;DHT22;4090;49.270;8.696;2023-08-12T16:05:56;24.50;99.90
8095;DHT22;4090;49.270;8.696;2023-08-12T16:08:38;24.50;99.90
8095;DHT22;4090;49.270;8.696;2023-08-12T16:11:20;24.50;99.90
8095;DHT22;4090;49.270;8.696;2023-08-12T16:14:02;24.50;99.90
8095;DHT22;4090;49.270;8.696;2023-08-12T16:16:44;24.40;99.90
8095;DHT22;4090;49.270;8.696;2023-08-12T16:19:27;24.40;99.90
8095;DHT22;4090;49.270;8.696;2023-08-12T16:22:09;24.40;99.90
8095;DHT22;4090;49.270;8.696;2023-08-12T16:24:51;24.40;99.90
8095;DHT22;4090;49.270;8.696;2023-08-12T16:27:33;24.40;99.90
8095;DHT22;4090;49.270;8.696;2023-08-12T16:30:15;24.30;99.90
8095;DHT22;4090;49.270;8.696;2023-08-12T16:32:57;24.40;99.90
8095;DHT22;4090;49.270;8.696;2023-08-12T16:35:40;24.30;99.90
8095;DHT22;4090;49.270;8.696;2023-08-12T16:38:22;24.30;99.90
8095;DHT22;4090;49.270;8.696;2023-08-12T16:41:04;24.20;99.90
8095;DHT22;4090;49.270;8.696;2023-08-12T16:43:46;24.20;99.90
8095;DHT22;4090;49.270;8.696;2023-08-12T16:46:27;24.20;99.90
8095;DHT22;4090;49.270;8.696;2023-08-12T16:49:10;24.20;99.90
8095;DHT22;4090;49.270;8.696;2023-08-12T16:51:53;24.20;99.90
8095;DHT22;4090;49.270;8.696;2023-08-12T16:54:35;24.20;99.90
8095;DHT22;4090;49.270;8.696;2023-08-12T16:57:18;24.20;99.90
8095;DHT22;4090;49.270;8.696;2023-08-12T17:00:00;24.20;99.90
8095;DHT22;4090;49.270;8.696;2023-08-12T17:02:44;24.20;99.90
8095;DHT22;4090;49.270;8.696;2023-08-12T17:05:26;24.10;99.90
8095;DHT22;4090;49.270;8.696;2023-08-12T17:08:09;24.10;99.90
8095;DHT22;4090;49.270;8.696;2023-08-12T17:10:51;24.10;99.90
8095;DHT22;4090;49.270;8.696;2023-08-12T17:13:33;24.10;99.90
8095;DHT22;4090;49.270;8.696;2023-08-12T17:16:15;24.10;99.90
8095;DHT22;4090;49.270;8.696;2023-08-12T17:18:57;24.10;99.90
8095;DHT22;4090;49.270;8.696;2023-08-12T17:21:39;24.10;99.90
8095;DHT22;4090;49.270;8.696;2023-08-12T17:24:22;24.10;99.90
8095;DHT22;4090;49.270;8.696;2023-08-12T17:27:04;24.10;99.90
8095;DHT22;4090;49.270;8.696;2023-08-12T17:29:46;24.10;99.90
8095;DHT22;4090;49.270;8.696;2023-08-12T17:32:28;24.10;99.90
8095;DHT22;4090;49.270;8.696;2023-08-12T17:35:10;24.10;99.90
8095;DHT22;4090;49.270;8.696;2023-08-12T17:37:52;24.00;99.90
8095;DHT22;4090;49.270;8.696;2023-08-12T17:40:35;24.00;99.90
8095;DHT22;4090;49.270;8.696;2023-08-12T17:43:17;24.00;99.90
8095;DHT22;4090;49.270;8.696;2023-08-12T17:45:59;24.00;99.90
8095;DHT22;4090;49.270;8.696;2023-08-12T17:48:41;24.10;99.90
8095;DHT22;4090;49.270;8.696;2023-08-12T17:51:22;24.10;99.90
8095;DHT22;4090;49.270;8.696;2023-08-12T17:54:04;24.00;99.90
8095;DHT22;4090;49.270;8.696;2023-08-12T17:56:48;24.00;99.90
8095;DHT22;4090;49.270;8.696;2023-08-12T17:59:29;24.00;99.90
8095;DHT22;4090;49.270;8.696;2023-08-12T18:02:11;24.00;99.90
8095;DHT22;4090;49.270;8.696;2023-08-12T18:04:53;24.00;99.90
8095;DHT22;4090;49.270;8.696;2023-08-12T18:07:35;24.00;99.90
8095;DHT22;4090;49.270;8.696;2023-08-12T18:10:17;24.00;99.90
8095;DHT22;4090;49.270;8.696;2023-08-12T18:13:00;23.90;99.90
8095;DHT22;4090;49.270;8.696;2023-08-12T18:15:42;23.90;99.90
8095;DHT22;4090;49.270;8.696;2023-08-12T18:18:24;23.90;99.90
8095;DHT22;4090;49.270;8.696;2023-08-12T18:21:06;23.90;99.90
8095;DHT22;4090;49.270;8.696;2023-08-12T18:23:48;23.80;99.90
8095;DHT22;4090;49.270;8.696;2023-08-12T18:26:30;23.80;99.90
8095;DHT22;4090;49.270;8.696;2023-08-12T18:29:13;23.80;99.90
8095;DHT22;4090;49.270;8.696;2023-08-12T18:31:55;23.80;99.90
8095;DHT22;4090;49.270;8.696;2023-08-12T18:34:37;23.70;99.90
8095;DHT22;4090;49.270;8.696;2023-08-12T18:37:19;23.70;99.90
8095;DHT22;4090;49.270;8.696;2023-08-12T18:40:01;23.70;99.90
8095;DHT22;4090;49.270;8.696;2023-08-12T18:42:43;23.70;99.90
8095;DHT22;4090;49.270;8.696;2023-08-12T18:45:26;23.70;99.90
8095;DHT22;4090;49.270;8.696;2023-08-12T18:48:08;23.70;99.90
8095;DHT22;4090;49.270;8.696;2023-08-12T18:50:50;23.70;99.90
8095;DHT22;4090;49.270;8.696;2023-08-12T18:53:32;23.70;99.90
8095;DHT22;4090;49.270;8.696;2023-08-12T18:56:14;23.80;99.90
8095;DHT22;4090;49.270;8.696;2023-08-12T18:58:56;23.70;99.90
8095;DHT22;4090;49.270;8.696;2023-08-12T19:01:39;23.70;99.90
8095;DHT22;4090;49.270;8.696;2023-08-12T19:04:21;23.70;99.90
8095;DHT22;4090;49.270;8.696;2023-08-12T19:07:03;23.70;99.90
8095;DHT22;4090;49.270;8.696;2023-08-12T19:09:45;23.60;99.90
8095;DHT22;4090;49.270;8.696;2023-08-12T19:12:27;23.70;99.90
8095;DHT22;4090;49.270;8.696;2023-08-12T19:15:09;23.60;99.90
8095;DHT22;4090;49.270;8.696;2023-08-12T19:17:53;23.70;99.90
8095;DHT22;4090;49.270;8.696;2023-08-12T19:20:35;23.70;99.90
8095;DHT22;4090;49.270;8.696;2023-08-12T19:23:17;23.70;99.90
8095;DHT22;4090;49.270;8.696;2023-08-12T19:25:59;23.70;99.90
8095;DHT22;4090;49.270;8.696;2023-08-12T19:28:41;23.60;99.90
8095;DHT22;4090;49.270;8.696;2023-08-12T19:31:23;23.70;99.90
8095;DHT22;4090;49.270;8.696;2023-08-12T19:34:06;23.70;99.90
8095;DHT22;4090;49.270;8.696;2023-08-12T19:36:48;23.70;99.90
8095;DHT22;4090;49.270;8.696;2023-08-12T19:39:30;23.70;99.90
8095;DHT22;4090;49.270;8.696;2023-08-12T19:42:12;23.70;99.90
8095;DHT22;4090;49.270;8.696;2023-08-12T19:44:54;23.70;99.90
8095;DHT22;4090;49.270;8.696;2023-08-12T19:47:40;23.70;99.90
8095;DHT22;4090;49.270;8.696;2023-08-12T19:50:23;23.70;99.90
8095;DHT22;4090;49.270;8.696;2023-08-12T19:53:05;23.70;99.90
8095;DHT22;4090;49.270;8.696;2023-08-12T19:55:47;23.70;99.90
8095;DHT22;4090;49.270;8.696;2023-08-12T19:58:29;23.60;99.90
8095;DHT22;4090;49.270;8.696;2023-08-12T20:01:11;23.60;99.90
8095;DHT22;4090;49.270;8.696;2023-08-12T20:03:53;23.60;99.90
8095;DHT22;4090;49.270;8.696;2023-08-12T20:06:36;23.50;99.90
8095;DHT22;4090;49.270;8.696;2023-08-12T20:09:18;23.60;99.90
8095;DHT22;4090;49.270;8.696;2023-08-12T20:12:00;23.50;99.90
8095;DHT22;4090;49.270;8.696;2023-08-12T20:14:42;23.60;99.90
8095;DHT22;4090;49.270;8.696;2023-08-12T20:17:24;23.50;99.90
8095;DHT22;4090;49.270;8.696;2023-08-12T20:20:08;23.50;99.90
8095;DHT22;4090;49.270;8.696;2023-08-12T20:22:53;23.50;99.90
8095;DHT22;4090;49.270;8.696;2023-08-12T20:25:36;23.50;99.90
8095;DHT22;4090;49.270;8.696;2023-08-12T20:28:18;23.50;99.90
8095;DHT22;4090;49.270;8.696;2023-08-12T20:31:00;23.50;99.90